الصفحة الرئيسية
METAR-TAF:

METAR-TAF

مطار :

Lampang, تايلاند

دائرة عرض: 18-17N, خط طول: 099-31E, ارتفاع: 241 متر

مراقبة الطقس الحالي

تاريخ ووقت الإصدار 7ساعات و 35 دقيقة قبل الساعة 11:00UTC
ريح 5 عقدة من الشمال
درجة الحرارة 32°درجة مئوية
الرطوبة 59%
ضغط 1002 hPa
الرؤية 10 كم أو أكثر
غيوم قليلة على ارتفاع 4000 قدم

METAR: VTCL 021100Z 36005KT 9999 FEW040 32/23 Q1002 NOSIG

زمن: 01:35 (18:35 UTC)

توقعات

تاريخ ووقت الإصدار 1ساعة و 35 دقيقة قبل الساعة 17:00UTC
التوقعات صالحة من02 الساعة 18 UTC إلى 03 الساعة 18 UTC
ريح 5 عقدة من الجنوب الغربي
الرؤية 10 كم أو أكثر
غيوم متفرقة على ارتفاع 2500 قدم
مؤقت
من 03 الساعة 08 UTC إلى 03 الساعة 13 UTC
ريح 15 عقدة من الغرب/الجنوب الغربي تتزايد حتى 30 عقدة
الرؤية: 4000 متر
غيوم قليلة على ارتفاع 1800 قدم, مزنة ركامية.
غيوم مفككة على ارتفاع 2500 قدم
عاصفة رعدية, مطر

TAF: VTCL 021700Z 0218/0318 22005KT 9999 SCT025 TEMPO 0308/0313 24015G30KT 4000 TSRA FEW018CB BKN025

أرصاد الطقس والتوقعات من أكثر من 4000 مطار (تقارير الطقس للمطار METAR والتنبؤ بالطقس بالمطارTAF).

المحطات المتاحة هي النقط الصفراء والحمراء على الخريطة.

حرك المؤشر فوق النقطة لمعرفة اسم المحطة.

ثم انقر لمعرفة أرصاد وتوقعات الطقس.

لتغيير الخارطة: اضغط على الأزرار الخضراء مع رمز الصليب الأسود للتكبير. على الزر الأخضر مع شرطة للتصغير، أو على الأسهم الخضراء للخرائط المجاورة.


METAR-TAF: